sensor_id;sensor_type;location;lat;lon;timestamp;P1;durP1;ratioP1;P2;durP2;ratioP2
58820;SDS011;70670;52.476;13.334;2023-07-13T00:01:47;4.93;;;1.98;;
58820;SDS011;70670;52.476;13.334;2023-07-13T00:04:15;4.20;;;1.77;;
58820;SDS011;70670;52.476;13.334;2023-07-13T00:06:43;5.53;;;2.42;;
58820;SDS011;70670;52.476;13.334;2023-07-13T00:09:13;3.58;;;1.65;;
58820;SDS011;70670;52.476;13.334;2023-07-13T00:11:42;3.30;;;1.98;;
58820;SDS011;70670;52.476;13.334;2023-07-13T00:14:08;4.15;;;1.60;;
58820;SDS011;70670;52.476;13.334;2023-07-13T00:16:36;5.00;;;1.80;;
58820;SDS011;70670;52.476;13.334;2023-07-13T00:19:04;3.70;;;1.95;;
58820;SDS011;70670;52.476;13.334;2023-07-13T00:21:30;4.25;;;1.73;;
58820;SDS011;70670;52.476;13.334;2023-07-13T00:23:56;5.72;;;1.77;;
58820;SDS011;70670;52.476;13.334;2023-07-13T00:26:22;1.67;;;1.50;;
58820;SDS011;70670;52.476;13.334;2023-07-13T00:28:48;3.50;;;1.65;;
58820;SDS011;70670;52.476;13.334;2023-07-13T00:31:14;3.13;;;1.48;;
58820;SDS011;70670;52.476;13.334;2023-07-13T00:33:40;3.78;;;1.50;;
58820;SDS011;70670;52.476;13.334;2023-07-13T00:36:07;4.50;;;1.80;;
58820;SDS011;70670;52.476;13.334;2023-07-13T00:38:33;6.00;;;2.00;;
58820;SDS011;70670;52.476;13.334;2023-07-13T00:40:59;3.25;;;2.22;;
58820;SDS011;70670;52.476;13.334;2023-07-13T00:43:26;8.25;;;3.03;;
58820;SDS011;70670;52.476;13.334;2023-07-13T00:48:20;3.20;;;1.73;;
58820;SDS011;70670;52.476;13.334;2023-07-13T00:50:48;4.22;;;1.90;;
58820;SDS011;70670;52.476;13.334;2023-07-13T00:53:18;5.28;;;1.65;;
58820;SDS011;70670;52.476;13.334;2023-07-13T00:55:45;7.10;;;2.00;;
58820;SDS011;70670;52.476;13.334;2023-07-13T00:58:12;5.78;;;2.00;;
58820;SDS011;70670;52.476;13.334;2023-07-13T01:00:38;3.45;;;1.70;;
58820;SDS011;70670;52.476;13.334;2023-07-13T01:03:04;5.28;;;2.22;;
58820;SDS011;70670;52.476;13.334;2023-07-13T01:05:31;4.30;;;2.05;;
58820;SDS011;70670;52.476;13.334;2023-07-13T01:07:59;3.07;;;2.13;;
58820;SDS011;70670;52.476;13.334;2023-07-13T01:10:26;2.08;;;1.42;;
58820;SDS011;70670;52.476;13.334;2023-07-13T01:12:51;6.95;;;1.98;;
58820;SDS011;70670;52.476;13.334;2023-07-13T01:18:13;4.75;;;1.85;;
58820;SDS011;70670;52.476;13.334;2023-07-13T01:20:41;3.78;;;1.73;;
58820;SDS011;70670;52.476;13.334;2023-07-13T01:23:12;5.60;;;2.10;;
58820;SDS011;70670;52.476;13.334;2023-07-13T01:25:38;6.63;;;1.90;;
58820;SDS011;70670;52.476;13.334;2023-07-13T01:28:05;6.15;;;1.95;;
58820;SDS011;70670;52.476;13.334;2023-07-13T01:30:31;8.10;;;2.15;;
58820;SDS011;70670;52.476;13.334;2023-07-13T01:32:57;5.07;;;1.92;;
58820;SDS011;70670;52.476;13.334;2023-07-13T01:35:23;8.80;;;2.05;;
58820;SDS011;70670;52.476;13.334;2023-07-13T01:37:52;2.75;;;1.95;;
58820;SDS011;70670;52.476;13.334;2023-07-13T01:40:18;6.20;;;2.20;;
58820;SDS011;70670;52.476;13.334;2023-07-13T01:42:45;4.15;;;1.80;;
58820;SDS011;70670;52.476;13.334;2023-07-13T01:45:10;5.68;;;2.00;;
58820;SDS011;70670;52.476;13.334;2023-07-13T01:47:36;6.00;;;1.95;;
58820;SDS011;70670;52.476;13.334;2023-07-13T01:50:02;4.30;;;2.20;;
58820;SDS011;70670;52.476;13.334;2023-07-13T01:52:28;3.63;;;1.98;;
58820;SDS011;70670;52.476;13.334;2023-07-13T01:54:53;7.47;;;2.10;;
58820;SDS011;70670;52.476;13.334;2023-07-13T01:57:19;6.80;;;2.55;;
58820;SDS011;70670;52.476;13.334;2023-07-13T01:59:45;5.65;;;1.95;;
58820;SDS011;70670;52.476;13.334;2023-07-13T02:02:10;7.20;;;2.58;;
58820;SDS011;70670;52.476;13.334;2023-07-13T02:04:36;2.85;;;1.80;;
58820;SDS011;70670;52.476;13.334;2023-07-13T02:07:02;5.05;;;2.00;;
58820;SDS011;70670;52.476;13.334;2023-07-13T02:09:27;5.47;;;2.17;;
58820;SDS011;70670;52.476;13.334;2023-07-13T02:11:53;5.15;;;2.00;;
58820;SDS011;70670;52.476;13.334;2023-07-13T02:14:19;4.57;;;1.77;;
58820;SDS011;70670;52.476;13.334;2023-07-13T02:16:44;3.53;;;1.98;;
58820;SDS011;70670;52.476;13.334;2023-07-13T02:19:10;6.25;;;2.03;;
58820;SDS011;70670;52.476;13.334;2023-07-13T02:21:36;3.05;;;1.60;;
58820;SDS011;70670;52.476;13.334;2023-07-13T02:24:01;4.28;;;1.85;;
58820;SDS011;70670;52.476;13.334;2023-07-13T02:26:27;7.57;;;2.28;;
58820;SDS011;70670;52.476;13.334;2023-07-13T02:28:52;5.40;;;2.20;;
58820;SDS011;70670;52.476;13.334;2023-07-13T02:31:18;4.72;;;2.28;;
58820;SDS011;70670;52.476;13.334;2023-07-13T02:33:44;2.90;;;1.75;;
58820;SDS011;70670;52.476;13.334;2023-07-13T02:36:10;5.57;;;2.00;;
58820;SDS011;70670;52.476;13.334;2023-07-13T02:38:37;5.70;;;1.95;;
58820;SDS011;70670;52.476;13.334;2023-07-13T02:41:03;4.47;;;1.80;;
58820;SDS011;70670;52.476;13.334;2023-07-13T02:43:29;6.60;;;1.80;;
58820;SDS011;70670;52.476;13.334;2023-07-13T02:45:55;3.83;;;2.33;;
58820;SDS011;70670;52.476;13.334;2023-07-13T02:48:20;3.97;;;1.77;;
58820;SDS011;70670;52.476;13.334;2023-07-13T02:50:46;1.83;;;1.67;;
58820;SDS011;70670;52.476;13.334;2023-07-13T02:53:12;2.53;;;1.75;;
58820;SDS011;70670;52.476;13.334;2023-07-13T02:55:37;6.32;;;1.92;;
58820;SDS011;70670;52.476;13.334;2023-07-13T02:58:04;4.47;;;2.25;;
58820;SDS011;70670;52.476;13.334;2023-07-13T03:00:31;5.80;;;1.92;;
58820;SDS011;70670;52.476;13.334;2023-07-13T03:02:56;2.10;;;1.80;;
58820;SDS011;70670;52.476;13.334;2023-07-13T03:05:23;3.85;;;1.77;;
58820;SDS011;70670;52.476;13.334;2023-07-13T03:07:48;2.78;;;2.00;;
58820;SDS011;70670;52.476;13.334;2023-07-13T03:10:14;3.45;;;2.20;;
58820;SDS011;70670;52.476;13.334;2023-07-13T03:12:41;4.15;;;1.98;;
58820;SDS011;70670;52.476;13.334;2023-07-13T03:15:07;4.65;;;2.35;;
58820;SDS011;70670;52.476;13.334;2023-07-13T03:17:33;6.47;;;2.30;;
58820;SDS011;70670;52.476;13.334;2023-07-13T03:19:59;10.93;;;2.97;;
58820;SDS011;70670;52.476;13.334;2023-07-13T03:22:24;5.55;;;2.30;;
58820;SDS011;70670;52.476;13.334;2023-07-13T03:24:50;3.30;;;2.10;;
58820;SDS011;70670;52.476;13.334;2023-07-13T03:27:16;4.35;;;2.30;;
58820;SDS011;70670;52.476;13.334;2023-07-13T03:29:43;3.25;;;2.35;;
58820;SDS011;70670;52.476;13.334;2023-07-13T03:32:08;5.63;;;2.10;;
58820;SDS011;70670;52.476;13.334;2023-07-13T03:34:34;2.50;;;2.10;;
58820;SDS011;70670;52.476;13.334;2023-07-13T03:37:00;8.00;;;2.10;;
58820;SDS011;70670;52.476;13.334;2023-07-13T03:39:26;4.15;;;2.38;;
58820;SDS011;70670;52.476;13.334;2023-07-13T03:41:52;3.80;;;2.17;;
58820;SDS011;70670;52.476;13.334;2023-07-13T03:44:18;3.50;;;2.60;;
58820;SDS011;70670;52.476;13.334;2023-07-13T03:46:43;5.55;;;2.50;;
58820;SDS011;70670;52.476;13.334;2023-07-13T03:49:09;6.15;;;2.55;;
58820;SDS011;70670;52.476;13.334;2023-07-13T03:51:35;4.25;;;2.63;;
58820;SDS011;70670;52.476;13.334;2023-07-13T03:54:01;5.60;;;2.50;;
58820;SDS011;70670;52.476;13.334;2023-07-13T03:56:28;4.22;;;2.50;;
58820;SDS011;70670;52.476;13.334;2023-07-13T03:58:54;6.57;;;2.42;;
58820;SDS011;70670;52.476;13.334;2023-07-13T04:01:20;3.33;;;2.30;;
58820;SDS011;70670;52.476;13.334;2023-07-13T04:03:47;5.32;;;2.45;;
58820;SDS011;70670;52.476;13.334;2023-07-13T04:06:15;3.22;;;2.08;;
58820;SDS011;70670;52.476;13.334;2023-07-13T04:08:46;3.33;;;2.47;;
58820;SDS011;70670;52.476;13.334;2023-07-13T04:11:20;4.45;;;2.65;;
58820;SDS011;70670;52.476;13.334;2023-07-13T04:13:46;6.47;;;2.63;;
58820;SDS011;70670;52.476;13.334;2023-07-13T04:16:13;4.95;;;2.67;;
58820;SDS011;70670;52.476;13.334;2023-07-13T04:18:40;5.65;;;2.58;;
58820;SDS011;70670;52.476;13.334;2023-07-13T04:21:06;3.28;;;2.47;;
58820;SDS011;70670;52.476;13.334;2023-07-13T04:23:32;6.20;;;2.47;;
58820;SDS011;70670;52.476;13.334;2023-07-13T04:25:58;5.20;;;2.72;;
58820;SDS011;70670;52.476;13.334;2023-07-13T04:28:25;4.55;;;2.20;;
58820;SDS011;70670;52.476;13.334;2023-07-13T04:30:51;8.63;;;2.53;;
58820;SDS011;70670;52.476;13.334;2023-07-13T04:33:17;5.47;;;2.55;;
58820;SDS011;70670;52.476;13.334;2023-07-13T04:35:47;7.00;;;2.20;;
58820;SDS011;70670;52.476;13.334;2023-07-13T04:38:13;6.97;;;2.33;;
58820;SDS011;70670;52.476;13.334;2023-07-13T04:40:40;3.97;;;2.28;;
58820;SDS011;70670;52.476;13.334;2023-07-13T04:43:08;5.93;;;2.38;;
58820;SDS011;70670;52.476;13.334;2023-07-13T04:45:34;7.47;;;2.30;;
58820;SDS011;70670;52.476;13.334;2023-07-13T04:48:00;6.13;;;2.67;;
58820;SDS011;70670;52.476;13.334;2023-07-13T04:50:26;3.25;;;1.98;;
58820;SDS011;70670;52.476;13.334;2023-07-13T04:52:51;4.45;;;2.30;;
58820;SDS011;70670;52.476;13.334;2023-07-13T04:55:17;8.98;;;3.30;;
58820;SDS011;70670;52.476;13.334;2023-07-13T04:57:44;4.47;;;2.60;;
58820;SDS011;70670;52.476;13.334;2023-07-13T05:00:10;6.47;;;2.67;;
58820;SDS011;70670;52.476;13.334;2023-07-13T05:02:37;7.15;;;2.88;;
58820;SDS011;70670;52.476;13.334;2023-07-13T05:05:04;6.90;;;2.90;;
58820;SDS011;70670;52.476;13.334;2023-07-13T05:07:30;6.32;;;2.80;;
58820;SDS011;70670;52.476;13.334;2023-07-13T05:09:58;5.45;;;2.67;;
58820;SDS011;70670;52.476;13.334;2023-07-13T05:12:25;5.90;;;2.90;;
58820;SDS011;70670;52.476;13.334;2023-07-13T05:14:51;7.40;;;2.50;;
58820;SDS011;70670;52.476;13.334;2023-07-13T05:17:16;6.38;;;2.72;;
58820;SDS011;70670;52.476;13.334;2023-07-13T05:19:42;7.32;;;2.85;;
58820;SDS011;70670;52.476;13.334;2023-07-13T05:22:08;3.40;;;2.33;;
58820;SDS011;70670;52.476;13.334;2023-07-13T05:24:33;6.90;;;2.35;;
58820;SDS011;70670;52.476;13.334;2023-07-13T05:26:59;9.98;;;2.00;;
58820;SDS011;70670;52.476;13.334;2023-07-13T05:29:25;4.35;;;2.60;;
58820;SDS011;70670;52.476;13.334;2023-07-13T05:31:50;8.63;;;2.53;;
58820;SDS011;70670;52.476;13.334;2023-07-13T05:34:16;10.90;;;2.33;;
58820;SDS011;70670;52.476;13.334;2023-07-13T05:36:42;6.22;;;2.10;;
58820;SDS011;70670;52.476;13.334;2023-07-13T05:39:08;7.70;;;2.55;;
58820;SDS011;70670;52.476;13.334;2023-07-13T05:41:35;5.28;;;2.28;;
58820;SDS011;70670;52.476;13.334;2023-07-13T05:44:01;5.65;;;2.15;;
58820;SDS011;70670;52.476;13.334;2023-07-13T05:46:26;3.28;;;1.92;;
58820;SDS011;70670;52.476;13.334;2023-07-13T05:48:52;7.38;;;1.95;;
58820;SDS011;70670;52.476;13.334;2023-07-13T05:51:18;3.63;;;1.90;;
58820;SDS011;70670;52.476;13.334;2023-07-13T05:53:43;9.32;;;2.25;;
58820;SDS011;70670;52.476;13.334;2023-07-13T05:56:09;3.90;;;1.80;;
58820;SDS011;70670;52.476;13.334;2023-07-13T05:58:35;2.25;;;1.90;;
58820;SDS011;70670;52.476;13.334;2023-07-13T06:01:04;7.28;;;2.03;;
58820;SDS011;70670;52.476;13.334;2023-07-13T06:03:31;6.00;;;2.15;;
58820;SDS011;70670;52.476;13.334;2023-07-13T06:05:57;6.30;;;2.72;;
58820;SDS011;70670;52.476;13.334;2023-07-13T06:08:25;3.80;;;1.77;;
58820;SDS011;70670;52.476;13.334;2023-07-13T06:10:51;4.05;;;2.20;;
58820;SDS011;70670;52.476;13.334;2023-07-13T06:13:17;4.72;;;2.10;;
58820;SDS011;70670;52.476;13.334;2023-07-13T06:15:50;6.07;;;2.00;;
58820;SDS011;70670;52.476;13.334;2023-07-13T06:18:15;4.97;;;1.90;;
58820;SDS011;70670;52.476;13.334;2023-07-13T06:20:41;6.22;;;1.90;;
58820;SDS011;70670;52.476;13.334;2023-07-13T06:23:07;7.20;;;2.05;;
58820;SDS011;70670;52.476;13.334;2023-07-13T06:25:33;3.47;;;1.58;;
58820;SDS011;70670;52.476;13.334;2023-07-13T06:27:58;3.55;;;1.80;;
58820;SDS011;70670;52.476;13.334;2023-07-13T06:30:24;3.92;;;2.10;;
58820;SDS011;70670;52.476;13.334;2023-07-13T06:32:49;4.10;;;2.00;;
58820;SDS011;70670;52.476;13.334;2023-07-13T06:35:15;6.47;;;1.90;;
58820;SDS011;70670;52.476;13.334;2023-07-13T06:37:41;6.25;;;1.80;;
58820;SDS011;70670;52.476;13.334;2023-07-13T06:40:07;2.30;;;1.42;;
58820;SDS011;70670;52.476;13.334;2023-07-13T06:42:32;4.57;;;1.70;;
58820;SDS011;70670;52.476;13.334;2023-07-13T06:44:58;3.75;;;1.88;;
58820;SDS011;70670;52.476;13.334;2023-07-13T06:47:24;5.38;;;1.60;;
58820;SDS011;70670;52.476;13.334;2023-07-13T06:49:49;6.38;;;1.80;;
58820;SDS011;70670;52.476;13.334;2023-07-13T06:52:15;5.78;;;1.90;;
58820;SDS011;70670;52.476;13.334;2023-07-13T06:54:41;2.75;;;1.58;;
58820;SDS011;70670;52.476;13.334;2023-07-13T06:57:06;7.05;;;1.90;;
58820;SDS011;70670;52.476;13.334;2023-07-13T06:59:32;2.83;;;1.25;;
58820;SDS011;70670;52.476;13.334;2023-07-13T07:01:58;6.82;;;1.40;;
58820;SDS011;70670;52.476;13.334;2023-07-13T07:04:23;5.05;;;1.63;;
58820;SDS011;70670;52.476;13.334;2023-07-13T07:06:49;4.55;;;1.25;;
58820;SDS011;70670;52.476;13.334;2023-07-13T07:09:15;4.80;;;2.33;;
58820;SDS011;70670;52.476;13.334;2023-07-13T07:11:41;4.95;;;1.58;;
58820;SDS011;70670;52.476;13.334;2023-07-13T07:14:07;2.83;;;2.03;;
58820;SDS011;70670;52.476;13.334;2023-07-13T07:16:33;7.13;;;2.08;;
58820;SDS011;70670;52.476;13.334;2023-07-13T07:18:59;2.15;;;1.17;;
58820;SDS011;70670;52.476;13.334;2023-07-13T07:21:25;4.32;;;1.20;;
58820;SDS011;70670;52.476;13.334;2023-07-13T07:23:51;6.03;;;1.20;;
58820;SDS011;70670;52.476;13.334;2023-07-13T07:26:17;5.07;;;1.23;;
58820;SDS011;70670;52.476;13.334;2023-07-13T07:28:43;2.47;;;1.20;;
58820;SDS011;70670;52.476;13.334;2023-07-13T07:31:09;4.10;;;1.33;;
58820;SDS011;70670;52.476;13.334;2023-07-13T07:33:35;3.22;;;1.20;;
58820;SDS011;70670;52.476;13.334;2023-07-13T07:36:01;3.22;;;1.20;;
58820;SDS011;70670;52.476;13.334;2023-07-13T07:38:27;3.30;;;1.10;;
58820;SDS011;70670;52.476;13.334;2023-07-13T07:40:53;4.38;;;1.52;;
58820;SDS011;70670;52.476;13.334;2023-07-13T07:43:19;6.82;;;1.27;;
58820;SDS011;70670;52.476;13.334;2023-07-13T07:45:44;3.40;;;2.22;;
58820;SDS011;70670;52.476;13.334;2023-07-13T07:48:10;4.28;;;1.30;;
58820;SDS011;70670;52.476;13.334;2023-07-13T07:50:37;6.97;;;1.33;;
58820;SDS011;70670;52.476;13.334;2023-07-13T07:53:04;3.67;;;1.50;;
58820;SDS011;70670;52.476;13.334;2023-07-13T07:55:33;14.20;;;2.30;;
58820;SDS011;70670;52.476;13.334;2023-07-13T07:57:59;2.80;;;1.58;;
58820;SDS011;70670;52.476;13.334;2023-07-13T08:00:24;1.70;;;1.10;;
58820;SDS011;70670;52.476;13.334;2023-07-13T08:02:50;2.33;;;0.90;;
58820;SDS011;70670;52.476;13.334;2023-07-13T08:05:16;3.42;;;1.13;;
58820;SDS011;70670;52.476;13.334;2023-07-13T08:07:42;2.15;;;1.10;;
58820;SDS011;70670;52.476;13.334;2023-07-13T08:10:10;3.20;;;0.88;;
58820;SDS011;70670;52.476;13.334;2023-07-13T08:12:37;3.67;;;1.35;;
58820;SDS011;70670;52.476;13.334;2023-07-13T08:15:03;3.72;;;1.52;;
58820;SDS011;70670;52.476;13.334;2023-07-13T08:17:30;2.80;;;1.23;;
58820;SDS011;70670;52.476;13.334;2023-07-13T08:19:56;1.60;;;0.85;;
58820;SDS011;70670;52.476;13.334;2023-07-13T08:22:22;1.60;;;0.90;;
58820;SDS011;70670;52.476;13.334;2023-07-13T08:24:48;5.53;;;1.45;;
58820;SDS011;70670;52.476;13.334;2023-07-13T08:27:20;2.08;;;1.02;;
58820;SDS011;70670;52.476;13.334;2023-07-13T08:29:47;2.38;;;1.15;;
58820;SDS011;70670;52.476;13.334;2023-07-13T08:32:13;2.58;;;0.90;;
58820;SDS011;70670;52.476;13.334;2023-07-13T08:34:39;2.80;;;1.10;;
58820;SDS011;70670;52.476;13.334;2023-07-13T08:37:05;3.60;;;1.48;;
58820;SDS011;70670;52.476;13.334;2023-07-13T08:39:31;1.52;;;1.00;;
58820;SDS011;70670;52.476;13.334;2023-07-13T08:42:00;5.90;;;1.05;;
58820;SDS011;70670;52.476;13.334;2023-07-13T08:47:38;9.07;;;1.60;;
58820;SDS011;70670;52.476;13.334;2023-07-13T08:50:12;9.00;;;1.55;;
58820;SDS011;70670;52.476;13.334;2023-07-13T08:52:40;5.63;;;1.23;;
58820;SDS011;70670;52.476;13.334;2023-07-13T08:57:48;2.78;;;0.90;;
58820;SDS011;70670;52.476;13.334;2023-07-13T09:00:29;4.05;;;1.02;;
58820;SDS011;70670;52.476;13.334;2023-07-13T09:03:01;10.13;;;1.35;;
58820;SDS011;70670;52.476;13.334;2023-07-13T09:05:33;7.35;;;1.13;;
58820;SDS011;70670;52.476;13.334;2023-07-13T09:11:16;6.38;;;1.35;;
58820;SDS011;70670;52.476;13.334;2023-07-13T09:16:24;6.97;;;1.08;;
58820;SDS011;70670;52.476;13.334;2023-07-13T09:18:51;2.63;;;1.05;;
58820;SDS011;70670;52.476;13.334;2023-07-13T09:21:25;4.10;;;0.70;;
58820;SDS011;70670;52.476;13.334;2023-07-13T09:23:58;1.85;;;0.80;;
58820;SDS011;70670;52.476;13.334;2023-07-13T09:26:26;1.83;;;0.80;;
58820;SDS011;70670;52.476;13.334;2023-07-13T09:31:42;5.25;;;1.17;;
58820;SDS011;70670;52.476;13.334;2023-07-13T09:34:14;2.22;;;1.10;;
58820;SDS011;70670;52.476;13.334;2023-07-13T09:36:40;2.15;;;0.98;;
58820;SDS011;70670;52.476;13.334;2023-07-13T09:39:26;4.30;;;1.73;;
58820;SDS011;70670;52.476;13.334;2023-07-13T09:41:57;2.60;;;1.50;;
58820;SDS011;70670;52.476;13.334;2023-07-13T09:44:28;3.90;;;1.75;;
58820;SDS011;70670;52.476;13.334;2023-07-13T09:47:02;2.00;;;1.80;;
58820;SDS011;70670;52.476;13.334;2023-07-13T09:49:29;11.35;;;2.40;;
58820;SDS011;70670;52.476;13.334;2023-07-13T09:51:59;4.15;;;1.95;;
58820;SDS011;70670;52.476;13.334;2023-07-13T09:54:33;6.13;;;2.03;;
58820;SDS011;70670;52.476;13.334;2023-07-13T09:57:01;5.20;;;2.00;;
58820;SDS011;70670;52.476;13.334;2023-07-13T09:59:32;4.43;;;2.20;;
58820;SDS011;70670;52.476;13.334;2023-07-13T10:01:59;5.13;;;2.20;;
58820;SDS011;70670;52.476;13.334;2023-07-13T10:04:28;3.35;;;2.15;;
58820;SDS011;70670;52.476;13.334;2023-07-13T10:07:11;6.88;;;2.63;;
58820;SDS011;70670;52.476;13.334;2023-07-13T10:09:38;6.90;;;2.10;;
58820;SDS011;70670;52.476;13.334;2023-07-13T10:12:04;5.20;;;2.25;;
58820;SDS011;70670;52.476;13.334;2023-07-13T10:14:39;5.85;;;2.10;;
58820;SDS011;70670;52.476;13.334;2023-07-13T10:17:08;4.43;;;1.70;;
58820;SDS011;70670;52.476;13.334;2023-07-13T10:19:37;3.17;;;2.13;;
58820;SDS011;70670;52.476;13.334;2023-07-13T10:24:57;7.55;;;1.95;;
58820;SDS011;70670;52.476;13.334;2023-07-13T10:27:33;2.38;;;2.00;;
58820;SDS011;70670;52.476;13.334;2023-07-13T10:32:34;2.38;;;1.95;;
58820;SDS011;70670;52.476;13.334;2023-07-13T10:35:01;7.78;;;2.00;;
58820;SDS011;70670;52.476;13.334;2023-07-13T10:37:40;3.30;;;1.70;;
58820;SDS011;70670;52.476;13.334;2023-07-13T10:40:14;4.03;;;1.40;;
58820;SDS011;70670;52.476;13.334;2023-07-13T10:42:44;5.80;;;1.50;;
58820;SDS011;70670;52.476;13.334;2023-07-13T10:45:14;3.30;;;1.63;;
58820;SDS011;70670;52.476;13.334;2023-07-13T10:47:42;7.60;;;1.70;;
58820;SDS011;70670;52.476;13.334;2023-07-13T10:50:12;6.05;;;2.22;;
58820;SDS011;70670;52.476;13.334;2023-07-13T10:52:45;6.15;;;1.75;;
58820;SDS011;70670;52.476;13.334;2023-07-13T11:03:30;4.55;;;2.13;;
58820;SDS011;70670;52.476;13.334;2023-07-13T11:06:08;5.03;;;2.05;;
58820;SDS011;70670;52.476;13.334;2023-07-13T11:21:19;5.88;;;1.98;;
58820;SDS011;70670;52.476;13.334;2023-07-13T11:23:53;6.55;;;2.22;;
58820;SDS011;70670;52.476;13.334;2023-07-13T11:31:41;3.85;;;2.10;;
58820;SDS011;70670;52.476;13.334;2023-07-13T11:34:12;6.68;;;1.70;;
58820;SDS011;70670;52.476;13.334;2023-07-13T11:36:50;4.05;;;1.80;;
58820;SDS011;70670;52.476;13.334;2023-07-13T11:39:17;4.55;;;1.80;;
58820;SDS011;70670;52.476;13.334;2023-07-13T11:41:53;4.30;;;1.67;;
58820;SDS011;70670;52.476;13.334;2023-07-13T11:44:23;5.38;;;1.60;;
58820;SDS011;70670;52.476;13.334;2023-07-13T11:46:51;4.88;;;1.70;;
58820;SDS011;70670;52.476;13.334;2023-07-13T11:49:19;3.22;;;1.45;;
58820;SDS011;70670;52.476;13.334;2023-07-13T11:51:46;3.45;;;1.33;;
58820;SDS011;70670;52.476;13.334;2023-07-13T11:54:43;3.78;;;1.70;;
58820;SDS011;70670;52.476;13.334;2023-07-13T11:57:19;4.05;;;1.70;;
58820;SDS011;70670;52.476;13.334;2023-07-13T11:59:53;3.45;;;1.45;;
58820;SDS011;70670;52.476;13.334;2023-07-13T12:02:25;10.27;;;1.33;;
58820;SDS011;70670;52.476;13.334;2023-07-13T12:04:55;1.98;;;1.35;;
58820;SDS011;70670;52.476;13.334;2023-07-13T12:07:22;6.97;;;1.63;;
58820;SDS011;70670;52.476;13.334;2023-07-13T12:09:47;5.22;;;1.48;;
58820;SDS011;70670;52.476;13.334;2023-07-13T12:12:20;3.88;;;1.85;;
58820;SDS011;70670;52.476;13.334;2023-07-13T12:14:50;8.65;;;1.80;;
58820;SDS011;70670;52.476;13.334;2023-07-13T12:17:21;3.08;;;1.30;;
58820;SDS011;70670;52.476;13.334;2023-07-13T12:19:48;4.18;;;1.50;;
58820;SDS011;70670;52.476;13.334;2023-07-13T12:22:16;3.17;;;1.40;;
58820;SDS011;70670;52.476;13.334;2023-07-13T12:24:43;3.33;;;1.52;;
58820;SDS011;70670;52.476;13.334;2023-07-13T12:27:16;4.57;;;1.45;;
58820;SDS011;70670;52.476;13.334;2023-07-13T12:29:58;4.32;;;1.30;;
58820;SDS011;70670;52.476;13.334;2023-07-13T12:32:26;4.65;;;1.23;;
58820;SDS011;70670;52.476;13.334;2023-07-13T12:35:14;5.10;;;1.65;;
58820;SDS011;70670;52.476;13.334;2023-07-13T12:37:43;2.67;;;0.90;;
58820;SDS011;70670;52.476;13.334;2023-07-13T12:40:13;2.90;;;1.35;;
58820;SDS011;70670;52.476;13.334;2023-07-13T12:42:40;9.68;;;1.30;;
58820;SDS011;70670;52.476;13.334;2023-07-13T12:45:23;4.70;;;1.30;;
58820;SDS011;70670;52.476;13.334;2023-07-13T12:47:55;5.53;;;1.40;;
58820;SDS011;70670;52.476;13.334;2023-07-13T12:50:38;6.03;;;1.30;;
58820;SDS011;70670;52.476;13.334;2023-07-13T12:53:12;6.35;;;1.60;;
58820;SDS011;70670;52.476;13.334;2023-07-13T12:55:47;12.32;;;1.73;;
58820;SDS011;70670;52.476;13.334;2023-07-13T12:58:21;7.28;;;1.20;;
58820;SDS011;70670;52.476;13.334;2023-07-13T13:00:53;6.10;;;1.38;;
58820;SDS011;70670;52.476;13.334;2023-07-13T13:03:39;3.70;;;1.00;;
58820;SDS011;70670;52.476;13.334;2023-07-13T13:08:48;5.87;;;1.10;;
58820;SDS011;70670;52.476;13.334;2023-07-13T13:11:15;6.85;;;1.45;;
58820;SDS011;70670;52.476;13.334;2023-07-13T13:13:42;5.13;;;1.50;;
58820;SDS011;70670;52.476;13.334;2023-07-13T13:16:12;4.80;;;1.15;;
58820;SDS011;70670;52.476;13.334;2023-07-13T13:18:42;6.78;;;1.48;;
58820;SDS011;70670;52.476;13.334;2023-07-13T13:21:09;3.47;;;1.10;;
58820;SDS011;70670;52.476;13.334;2023-07-13T13:23:35;3.50;;;1.13;;
58820;SDS011;70670;52.476;13.334;2023-07-13T13:26:00;2.72;;;1.10;;
58820;SDS011;70670;52.476;13.334;2023-07-13T13:28:27;3.13;;;0.82;;
58820;SDS011;70670;52.476;13.334;2023-07-13T13:30:52;3.97;;;1.10;;
58820;SDS011;70670;52.476;13.334;2023-07-13T13:33:19;3.40;;;0.88;;
58820;SDS011;70670;52.476;13.334;2023-07-13T13:35:47;4.53;;;1.50;;
58820;SDS011;70670;52.476;13.334;2023-07-13T13:38:20;5.15;;;1.00;;
58820;SDS011;70670;52.476;13.334;2023-07-13T13:40:50;3.65;;;0.90;;
58820;SDS011;70670;52.476;13.334;2023-07-13T13:43:20;3.65;;;1.02;;
58820;SDS011;70670;52.476;13.334;2023-07-13T13:45:51;2.47;;;1.08;;
58820;SDS011;70670;52.476;13.334;2023-07-13T13:48:18;2.28;;;0.98;;
58820;SDS011;70670;52.476;13.334;2023-07-13T13:50:46;3.67;;;1.30;;
58820;SDS011;70670;52.476;13.334;2023-07-13T13:53:13;2.45;;;0.90;;
58820;SDS011;70670;52.476;13.334;2023-07-13T13:55:39;3.53;;;1.20;;
58820;SDS011;70670;52.476;13.334;2023-07-13T13:58:07;4.15;;;1.30;;
58820;SDS011;70670;52.476;13.334;2023-07-13T14:00:34;5.13;;;1.77;;
58820;SDS011;70670;52.476;13.334;2023-07-13T14:03:00;2.03;;;0.93;;
58820;SDS011;70670;52.476;13.334;2023-07-13T14:05:26;8.00;;;2.13;;
58820;SDS011;70670;52.476;13.334;2023-07-13T14:07:53;3.28;;;1.48;;
58820;SDS011;70670;52.476;13.334;2023-07-13T14:10:19;3.22;;;0.98;;
58820;SDS011;70670;52.476;13.334;2023-07-13T14:12:45;3.03;;;1.08;;
58820;SDS011;70670;52.476;13.334;2023-07-13T14:15:26;2.75;;;1.55;;
58820;SDS011;70670;52.476;13.334;2023-07-13T14:17:53;2.13;;;1.10;;
58820;SDS011;70670;52.476;13.334;2023-07-13T14:20:20;2.83;;;0.93;;
58820;SDS011;70670;52.476;13.334;2023-07-13T14:22:49;5.25;;;1.70;;
58820;SDS011;70670;52.476;13.334;2023-07-13T14:25:16;4.15;;;1.40;;
58820;SDS011;70670;52.476;13.334;2023-07-13T14:27:43;4.72;;;1.30;;
58820;SDS011;70670;52.476;13.334;2023-07-13T14:30:17;6.57;;;1.30;;
58820;SDS011;70670;52.476;13.334;2023-07-13T14:32:44;2.15;;;0.95;;
58820;SDS011;70670;52.476;13.334;2023-07-13T14:35:11;2.35;;;1.05;;
58820;SDS011;70670;52.476;13.334;2023-07-13T14:37:39;2.92;;;1.02;;
58820;SDS011;70670;52.476;13.334;2023-07-13T14:40:12;3.78;;;0.88;;
58820;SDS011;70670;52.476;13.334;2023-07-13T14:42:42;1.85;;;1.05;;
58820;SDS011;70670;52.476;13.334;2023-07-13T14:45:14;4.20;;;0.90;;
58820;SDS011;70670;52.476;13.334;2023-07-13T14:47:42;7.32;;;1.05;;
58820;SDS011;70670;52.476;13.334;2023-07-13T14:50:18;3.35;;;1.10;;
58820;SDS011;70670;52.476;13.334;2023-07-13T14:52:46;4.47;;;0.95;;
58820;SDS011;70670;52.476;13.334;2023-07-13T14:55:19;4.00;;;0.95;;
58820;SDS011;70670;52.476;13.334;2023-07-13T14:57:45;2.28;;;0.80;;
58820;SDS011;70670;52.476;13.334;2023-07-13T15:00:19;3.05;;;0.60;;
58820;SDS011;70670;52.476;13.334;2023-07-13T15:02:47;6.57;;;0.85;;
58820;SDS011;70670;52.476;13.334;2023-07-13T15:05:22;2.20;;;0.52;;
58820;SDS011;70670;52.476;13.334;2023-07-13T15:07:56;2.45;;;0.80;;
58820;SDS011;70670;52.476;13.334;2023-07-13T15:10:25;3.10;;;0.80;;
58820;SDS011;70670;52.476;13.334;2023-07-13T15:12:52;1.65;;;0.70;;
58820;SDS011;70670;52.476;13.334;2023-07-13T15:15:18;1.02;;;0.52;;
58820;SDS011;70670;52.476;13.334;2023-07-13T15:17:45;3.08;;;0.70;;
58820;SDS011;70670;52.476;13.334;2023-07-13T15:20:23;1.08;;;0.50;;
58820;SDS011;70670;52.476;13.334;2023-07-13T15:22:55;0.95;;;0.50;;
58820;SDS011;70670;52.476;13.334;2023-07-13T15:25:29;1.50;;;0.50;;
58820;SDS011;70670;52.476;13.334;2023-07-13T15:27:58;0.80;;;0.60;;
58820;SDS011;70670;52.476;13.334;2023-07-13T15:30:25;3.97;;;0.70;;
58820;SDS011;70670;52.476;13.334;2023-07-13T15:32:56;2.10;;;0.60;;